Time;durP1;ratioP1;P1;durP2;ratioP2;P2;SDS_P1;SDS_P2;PMS_P1;PMS_P2;Temp;Humidity;BMP_temperature;BMP_pressure;BME280_temperature;BME280_humidity;BME280_pressure;Samples;Min_cycle;Max_cycle;Signal;HPM_P1;HPM_P2
2022/01/02 00:01:42;;;;;;;;;23.50;21.50;;;;;11.54;69.48;101687.06;5089157;27;45386;-67
2022/01/02 00:04:13;;;;;;;;;24.00;22.75;;;;;11.50;70.24;101673.66;5081772;27;45301;-67
2022/01/02 00:06:51;;;;;;;;;24.00;24.00;;;;;11.50;69.92;101677.22;5086047;27;45353;-67
2022/01/02 00:09:33;;;;;;;;;25.50;22.50;;;;;11.46;70.44;101664.72;5096353;27;45586;-67
2022/01/02 00:12:06;;;;;;;;;22.75;22.50;;;;;11.52;70.61;101687.88;5091552;27;45338;-67
2022/01/02 00:14:35;;;;;;;;;21.50;18.75;;;;;11.50;70.11;101678.97;5083349;27;45331;-67
2022/01/02 00:17:05;;;;;;;;;24.00;22.00;;;;;11.59;70.00;101693.41;5096213;27;45401;-67
2022/01/02 00:19:33;;;;;;;;;20.00;18.75;;;;;11.55;70.24;101686.22;5082904;27;45506;-67
2022/01/02 00:22:01;;;;;;;;;23.00;20.00;;;;;11.61;70.34;101698.75;5094182;27;45369;-67
2022/01/02 00:24:28;;;;;;;;;23.75;21.25;;;;;11.51;69.63;101672.81;5095821;27;45485;-67
2022/01/02 00:26:56;;;;;;;;;22.25;19.50;;;;;11.48;70.01;101663.00;5092043;27;45315;-67
2022/01/02 00:29:22;;;;;;;;;25.75;23.50;;;;;11.48;69.47;101668.31;5082198;27;45359;-67
2022/01/02 00:31:48;;;;;;;;;23.50;23.50;;;;;11.46;69.87;101656.78;5088862;27;45745;-67
2022/01/02 00:34:15;;;;;;;;;27.00;22.00;;;;;11.50;69.46;101661.31;5081916;27;45457;-67
2022/01/02 00:36:41;;;;;;;;;20.50;19.00;;;;;11.57;69.78;101675.69;5085048;27;45305;-67
2022/01/02 00:39:07;;;;;;;;;23.50;21.75;;;;;11.49;70.29;101651.59;5055613;27;1168804;-67
2022/01/02 00:41:47;;;;;;;;;24.50;21.50;;;;;11.56;70.30;101668.56;5086748;27;45796;-67
2022/01/02 00:44:35;;;;;;;;;20.75;19.25;;;;;11.46;70.36;101654.13;5080839;27;45371;-67
2022/01/02 00:47:06;;;;;;;;;25.00;23.75;;;;;11.57;70.17;101673.03;5093641;27;45445;-67
2022/01/02 00:49:37;;;;;;;;;26.25;23.25;;;;;11.44;69.89;101653.16;5083153;27;45417;-67
2022/01/02 00:52:07;;;;;;;;;25.75;22.00;;;;;11.50;69.63;101663.06;5083216;27;46782;-67
2022/01/02 00:54:33;;;;;;;;;25.50;24.00;;;;;11.51;70.09;101665.78;5082753;27;45312;-67
2022/01/02 00:57:05;;;;;;;;;24.00;22.00;;;;;11.41;70.04;101646.03;5089835;27;45321;-67
2022/01/02 00:59:45;;;;;;;;;18.25;18.25;;;;;11.45;69.35;101641.72;5082658;27;45500;-67
2022/01/02 01:02:15;;;;;;;;;20.25;20.00;;;;;11.51;70.69;101638.38;5088263;27;47257;-67
2022/01/02 01:04:43;;;;;;;;;22.50;21.50;;;;;11.39;70.37;101623.00;5084847;27;45244;-67
2022/01/02 01:07:09;;;;;;;;;24.25;22.75;;;;;11.50;69.69;101631.31;5098498;27;45300;-68
2022/01/02 01:09:35;;;;;;;;;21.50;18.00;;;;;11.48;70.05;101625.03;5094837;27;45392;-67
2022/01/02 01:12:02;;;;;;;;;23.00;22.50;;;;;11.48;69.99;101622.41;5097014;27;47039;-66
2022/01/02 01:14:30;;;;;;;;;25.00;20.75;;;;;11.57;70.36;101630.69;5083801;27;45406;-66
2022/01/02 01:16:56;;;;;;;;;23.75;21.75;;;;;11.56;69.97;101612.97;5094275;27;45291;-66
2022/01/02 01:19:22;;;;;;;;;23.50;20.50;;;;;11.57;70.72;101602.44;5083714;27;45378;-67
2022/01/02 01:21:49;;;;;;;;;22.75;21.75;;;;;11.42;70.02;101576.34;5092007;27;45334;-67
2022/01/02 01:24:14;;;;;;;;;15.75;15.25;;;;;11.56;69.26;101594.44;5083307;27;45535;-67
2022/01/02 01:26:40;;;;;;;;;17.75;15.00;;;;;11.56;69.38;101597.97;5090375;27;45256;-67
2022/01/02 01:29:06;;;;;;;;;20.25;19.50;;;;;11.50;70.00;101592.47;5082013;27;45262;-67
2022/01/02 01:31:31;;;;;;;;;23.00;15.00;;;;;11.57;69.07;101610.38;5088544;27;45621;-67
2022/01/02 01:33:56;;;;;;;;;22.00;21.00;;;;;11.50;69.82;101592.47;5081501;27;45561;-67
2022/01/02 01:36:22;;;;;;;;;20.50;18.00;;;;;11.44;69.37;101573.75;5085612;27;45225;-67
2022/01/02 01:38:48;;;;;;;;;24.75;19.50;;;;;11.46;69.39;101580.00;5098566;27;45379;-67
2022/01/02 01:41:30;;;;;;;;;26.00;21.25;;;;;11.53;69.54;101589.03;5092358;27;48172;-67
2022/01/02 01:46:41;;;;;;;;;13.00;13.00;;;;;11.55;69.97;101582.06;5094767;27;45557;-67
2022/01/02 01:49:17;;;;;;;;;18.00;17.75;;;;;11.54;69.81;101588.19;5080703;27;45510;-67
2022/01/02 01:51:44;;;;;;;;;20.25;17.75;;;;;11.53;69.78;101582.00;5093605;27;45397;-67
2022/01/02 01:54:09;;;;;;;;;19.25;17.50;;;;;11.46;69.62;101564.13;5114092;27;45364;-67
2022/01/02 01:56:37;;;;;;;;;20.00;19.00;;;;;11.46;70.35;101564.13;5089916;27;45528;-68
2022/01/02 01:59:03;;;;;;;;;19.50;18.00;;;;;11.46;69.60;101564.13;5080257;27;45839;-67
2022/01/02 02:01:29;;;;;;;;;20.00;18.00;;;;;11.49;69.61;101565.97;5090183;27;45333;-67
2022/01/02 02:03:56;;;;;;;;;19.00;17.50;;;;;11.49;69.40;101558.03;5088247;27;44718;-67
2022/01/02 02:06:21;;;;;;;;;21.75;18.00;;;;;11.46;69.17;101547.34;5088587;27;45342;-67
2022/01/02 02:08:47;;;;;;;;;14.25;14.25;;;;;11.45;69.12;101549.06;5098639;27;45603;-67
2022/01/02 02:11:13;;;;;;;;;14.00;14.00;;;;;11.49;69.20;101561.56;5091137;27;45291;-67
2022/01/02 02:13:39;;;;;;;;;19.00;16.50;;;;;11.52;68.92;101556.38;5088191;27;45234;-67
2022/01/02 02:16:05;;;;;;;;;16.00;15.75;;;;;11.54;69.19;101553.75;5086059;27;45495;-67
2022/01/02 02:18:30;;;;;;;;;19.00;17.00;;;;;11.46;70.22;101539.41;5088394;27;45485;-68
2022/01/02 02:20:55;;;;;;;;;17.75;16.25;;;;;11.27;68.82;101498.19;5085824;27;45524;-68
2022/01/02 02:23:21;;;;;;;;;21.50;15.00;;;;;11.47;68.82;101523.56;5088433;27;45224;-68
2022/01/02 02:25:46;;;;;;;;;17.50;16.50;;;;;11.32;68.95;101494.84;5085137;27;45520;-67
2022/01/02 02:28:13;;;;;;;;;13.00;11.00;;;;;11.54;69.18;101519.34;5087497;27;45319;-67
2022/01/02 02:30:41;;;;;;;;;18.75;15.75;;;;;11.55;69.63;101522.06;5099525;27;46450;-67
2022/01/02 02:33:08;;;;;;;;;18.50;13.25;;;;;11.42;68.75;101507.50;5086515;27;45380;-67
2022/01/02 02:35:35;;;;;;;;;17.00;17.00;;;;;11.56;68.97;101513.25;5084985;27;45278;-67
2022/01/02 02:38:03;;;;;;;;;16.00;16.00;;;;;11.53;68.92;101505.22;5093675;27;45553;-68
2022/01/02 02:40:29;;;;;;;;;22.25;17.00;;;;;11.59;69.05;101509.78;5092760;27;45648;-67
2022/01/02 02:43:07;;;;;;;;;19.25;16.00;;;;;11.55;69.02;101481.44;5082555;27;45361;-67
2022/01/02 02:51:12;;;;;;;;;16.00;11.00;;;;;11.49;69.09;101460.06;5083247;27;45801;-67
2022/01/02 02:53:41;;;;;;;;;16.00;13.00;;;;;11.53;69.20;101476.09;5079046;27;45433;-67
2022/01/02 02:56:20;;;;;;;;;11.50;11.50;;;;;11.49;68.77;101453.03;5090242;27;45381;-67
2022/01/02 02:58:49;;;;;;;;;16.00;15.00;;;;;11.48;68.92;101448.56;5079191;27;45342;-67
2022/01/02 03:01:17;;;;;;;;;21.50;18.25;;;;;11.56;68.98;101462.03;5087536;27;45281;-67
2022/01/02 03:03:44;;;;;;;;;16.00;16.00;;;;;11.59;69.27;101464.78;5089146;27;45438;-67
2022/01/02 03:06:09;;;;;;;;;16.00;13.00;;;;;11.60;69.10;101479.84;5085914;27;45260;-67
2022/01/02 03:08:36;;;;;;;;;14.75;13.00;;;;;11.59;69.45;101499.19;5098204;27;45496;-68
2022/01/02 03:11:03;;;;;;;;;14.00;14.00;;;;;11.60;68.87;101475.44;5089604;27;46566;-67
2022/01/02 03:13:28;;;;;;;;;14.50;14.50;;;;;11.55;68.76;101447.91;5088321;27;45302;-67
2022/01/02 03:15:54;;;;;;;;;15.25;13.00;;;;;11.71;68.17;101464.28;5084329;27;45371;-67
2022/01/02 03:18:19;;;;;;;;;14.00;14.00;;;;;11.63;68.10;101453.44;5088299;27;45262;-68
2022/01/02 03:20:45;;;;;;;;;16.00;13.00;;;;;11.67;67.24;101465.91;5084774;27;46431;-68
2022/01/02 03:23:10;;;;;;;;;16.50;14.00;;;;;11.69;67.75;101460.69;5102965;27;45352;-68
2022/01/02 03:25:36;;;;;;;;;13.50;13.00;;;;;11.75;67.94;101469.69;5083954;27;45323;-67
2022/01/02 03:28:02;;;;;;;;;17.75;15.00;;;;;11.78;67.36;101467.13;5084895;27;46002;-67
2022/01/02 03:30:27;;;;;;;;;18.25;14.25;;;;;11.88;67.52;101505.44;5082246;27;45384;-68
2022/01/02 03:32:52;;;;;;;;;14.50;12.75;;;;;11.89;67.38;101491.34;5086931;27;45355;-68
2022/01/02 03:35:18;;;;;;;;;14.25;11.75;;;;;11.85;67.65;101476.19;5085018;27;45402;-67
2022/01/02 03:37:43;;;;;;;;;12.00;12.00;;;;;11.94;67.15;101494.16;5094146;27;45263;-67
2022/01/02 03:40:10;;;;;;;;;15.50;13.25;;;;;11.94;67.55;101492.38;5097309;27;46462;-68
2022/01/02 03:42:36;;;;;;;;;16.25;13.00;;;;;11.85;67.72;101476.19;5088418;27;45364;-68
2022/01/02 03:45:03;;;;;;;;;16.25;13.25;;;;;11.86;66.45;101467.41;5085529;27;45283;-68
2022/01/02 03:47:29;;;;;;;;;18.67;14.33;;;;;11.92;66.99;101466.69;5091556;27;45450;-68
2022/01/02 03:49:57;;;;;;;;;15.25;14.00;;;;;11.84;65.75;101445.22;5082826;27;47229;-68
2022/01/02 03:52:23;;;;;;;;;13.75;13.00;;;;;11.87;67.20;101442.72;5090358;27;45365;-68
2022/01/02 03:54:48;;;;;;;;;13.25;12.50;;;;;11.91;67.17;101433.13;5082466;27;45563;-68
2022/01/02 03:57:13;;;;;;;;;18.00;15.00;;;;;11.84;66.65;101435.53;5090718;27;45724;-68
2022/01/02 03:59:39;;;;;;;;;13.25;12.25;;;;;11.93;66.66;101436.69;5085916;27;45429;-67
2022/01/02 04:02:04;;;;;;;;;15.00;13.33;;;;;11.97;66.98;101438.59;5100498;27;45660;-68
2022/01/02 04:04:29;;;;;;;;;9.25;7.75;;;;;11.99;66.70;101440.44;5087944;27;45493;-68
2022/01/02 04:06:55;;;;;;;;;14.25;13.25;;;;;11.96;65.81;101443.00;5099702;27;45420;-68
2022/01/02 04:09:20;;;;;;;;;8.00;7.75;;;;;11.97;66.60;101433.28;5096292;27;48188;-67
2022/01/02 04:11:46;;;;;;;;;14.25;13.00;;;;;12.01;66.13;101457.25;5094937;27;45483;-67
2022/01/02 04:14:11;;;;;;;;;13.00;13.00;;;;;11.84;67.23;101417.00;5086237;27;45464;-68
2022/01/02 04:16:37;;;;;;;;;12.50;12.25;;;;;11.91;67.08;101426.06;5090716;27;45535;-67
2022/01/02 04:19:02;;;;;;;;;14.25;13.00;;;;;12.02;67.24;101424.63;5099183;27;45767;-68
2022/01/02 04:21:27;;;;;;;;;12.25;11.25;;;;;11.97;67.32;101414.75;5092300;27;45209;-67
2022/01/02 04:23:53;;;;;;;;;14.50;10.75;;;;;11.97;65.60;101412.09;5084255;27;45481;-67
2022/01/02 04:26:18;;;;;;;;;12.25;12.25;;;;;11.99;65.88;101423.66;5090024;27;45442;-68
2022/01/02 04:28:43;;;;;;;;;14.00;12.00;;;;;12.07;65.25;101440.63;5085952;27;46253;-68
2022/01/02 04:31:10;;;;;;;;;11.75;10.75;;;;;12.04;65.78;101433.53;5087826;27;45588;-68
2022/01/02 04:33:36;;;;;;;;;15.75;11.50;;;;;12.11;65.65;101431.03;5086146;27;45308;-68
2022/01/02 04:36:02;;;;;;;;;15.75;14.25;;;;;12.11;65.83;101415.13;5084775;27;45480;-68
2022/01/02 04:38:27;;;;;;;;;15.25;13.75;;;;;12.05;65.89;101382.31;5098112;27;46023;-67
2022/01/02 04:40:52;;;;;;;;;14.50;13.50;;;;;11.91;65.04;101358.94;5094823;27;45457;-67
2022/01/02 04:43:18;;;;;;;;;16.75;13.75;;;;;12.04;65.98;101393.78;5083105;27;45312;-68
2022/01/02 04:45:43;;;;;;;;;17.00;15.00;;;;;12.02;65.06;101390.19;5105285;27;46135;-67
2022/01/02 04:48:08;;;;;;;;;14.75;13.00;;;;;11.93;65.94;101367.81;5085671;27;46102;-68
2022/01/02 04:50:34;;;;;;;;;14.00;11.75;;;;;12.02;66.00;101384.88;5088938;27;45300;-68
2022/01/02 04:52:59;;;;;;;;;10.50;9.50;;;;;12.08;65.99;101371.78;5084112;27;45358;-67
2022/01/02 04:55:24;;;;;;;;;17.25;13.75;;;;;12.08;65.56;101362.94;5087647;27;45206;-68
2022/01/02 04:57:50;;;;;;;;;14.75;13.50;;;;;12.07;66.35;101362.06;5085269;27;45596;-67
2022/01/02 05:00:15;;;;;;;;;17.50;10.50;;;;;12.13;65.87;101358.69;5086405;27;45315;-68
2022/01/02 05:02:41;;;;;;;;;13.25;13.00;;;;;12.07;66.34;101343.50;5093781;27;45253;-68
2022/01/02 05:05:06;;;;;;;;;13.25;13.00;;;;;11.97;66.34;101325.56;5085439;27;45310;-67
2022/01/02 05:07:32;;;;;;;;;15.00;12.75;;;;;11.95;66.36;101334.31;5092808;27;45662;-67
2022/01/02 05:09:57;;;;;;;;;18.25;16.25;;;;;11.94;64.36;101321.94;5093117;27;45387;-67
2022/01/02 05:12:23;;;;;;;;;14.25;14.25;;;;;12.03;65.51;101377.81;5096331;27;45292;-68
2022/01/02 05:14:48;;;;;;;;;15.75;11.75;;;;;12.06;65.39;101372.59;5082628;27;45572;-68
2022/01/02 05:17:14;;;;;;;;;13.75;13.00;;;;;12.05;65.52;101377.00;5094175;27;45564;-67
2022/01/02 05:19:39;;;;;;;;;13.50;12.00;;;;;12.11;65.67;101394.81;5083021;27;45251;-68
2022/01/02 05:22:04;;;;;;;;;11.50;10.00;;;;;12.07;64.15;101377.97;5090319;27;45434;-67
2022/01/02 05:24:30;;;;;;;;;13.50;13.50;;;;;12.08;65.36;101370.91;5079121;27;46729;-68
2022/01/02 05:26:55;;;;;;;;;13.00;12.50;;;;;12.00;65.02;101352.13;5089017;27;46243;-67
2022/01/02 05:29:22;;;;;;;;;11.75;11.50;;;;;12.08;65.13;101361.19;5082290;27;45512;-68
2022/01/02 05:31:48;;;;;;;;;11.75;10.00;;;;;12.07;65.08;101362.06;5087075;27;45318;-67
2022/01/02 05:34:13;;;;;;;;;10.25;9.00;;;;;12.07;65.05;101364.72;5081312;27;45327;-68
2022/01/02 05:36:39;;;;;;;;;13.00;13.00;;;;;12.09;65.33;101368.28;5091086;27;45607;-67
2022/01/02 05:39:04;;;;;;;;;11.50;9.75;;;;;12.07;64.64;101359.41;5098526;27;45416;-67
2022/01/02 05:41:32;;;;;;;;;11.25;11.25;;;;;12.11;64.74;101370.97;5091233;27;45256;-68
2022/01/02 05:43:57;;;;;;;;;12.25;12.00;;;;;11.85;64.91;101319.91;5080094;27;45672;-67
2022/01/02 05:46:23;;;;;;;;;13.50;12.00;;;;;12.02;64.85;101347.78;5095513;27;46920;-68
2022/01/02 05:48:50;;;;;;;;;11.00;9.75;;;;;12.08;65.56;101362.94;5078779;28;45415;-67
2022/01/02 05:51:16;;;;;;;;;10.50;9.25;;;;;12.11;64.91;101356.84;5091234;27;45275;-67
2022/01/02 05:53:41;;;;;;;;;11.75;9.50;;;;;12.09;65.30;101357.66;5079540;27;45346;-67
2022/01/02 05:56:06;;;;;;;;;11.33;10.00;;;;;12.11;65.01;101359.50;5090854;27;46259;-67
2022/01/02 05:58:32;;;;;;;;;12.00;12.00;;;;;12.10;65.21;101355.94;5078785;28;45347;-67
2022/01/02 06:00:57;;;;;;;;;9.00;9.00;;;;;12.05;64.75;101353.16;5089718;27;45577;-68
2022/01/02 06:03:23;;;;;;;;;9.33;9.33;;;;;12.13;65.40;101360.41;5093192;27;45318;-67
2022/01/02 06:05:48;;;;;;;;;9.67;8.00;;;;;12.18;64.92;101367.63;5084542;27;45425;-68
2022/01/02 06:08:14;;;;;;;;;10.67;9.00;;;;;12.12;64.60;101354.22;5098358;27;45333;-67
2022/01/02 06:10:39;;;;;;;;;11.67;10.33;;;;;12.17;65.72;101368.50;5093645;27;45322;-67
2022/01/02 06:13:05;;;;;;;;;9.00;8.33;;;;;12.24;65.00;101378.41;5090335;27;45571;-68
2022/01/02 06:15:30;;;;;;;;;10.33;8.33;;;;;12.22;65.47;101363.31;5086415;27;45334;-68
2022/01/02 06:17:56;;;;;;;;;9.00;8.00;;;;;12.22;64.80;101345.66;5088950;27;45318;-68
2022/01/02 06:20:21;;;;;;;;;10.00;8.67;;;;;12.30;64.87;101359.13;5085547;27;45449;-68
2022/01/02 06:22:47;;;;;;;;;11.33;9.00;;;;;12.28;64.21;101348.47;5087473;27;45511;-68
2022/01/02 06:25:12;;;;;;;;;10.67;8.67;;;;;12.31;64.82;101355.59;5083835;27;45466;-68
2022/01/02 06:27:39;;;;;;;;;11.00;11.00;;;;;12.29;64.55;101352.94;5086332;27;45216;-68
2022/01/02 06:30:05;;;;;;;;;10.33;8.67;;;;;12.38;64.93;101360.22;5082508;27;45225;-67
2022/01/02 06:32:31;;;;;;;;;12.33;9.00;;;;;12.35;64.38;101357.50;5084964;27;45250;-68
2022/01/02 06:34:56;;;;;;;;;6.33;6.33;;;;;12.40;64.38;101373.50;5081496;27;46185;-67
2022/01/02 06:37:21;;;;;;;;;14.00;11.33;;;;;12.37;63.99;101382.25;5095157;27;45221;-67
2022/01/02 06:39:47;;;;;;;;;9.00;8.00;;;;;12.39;64.58;101404.41;5094406;27;45483;-67
2022/01/02 06:42:12;;;;;;;;;9.67;9.00;;;;;12.41;64.79;101412.44;5087986;27;45298;-68
2022/01/02 06:44:37;;;;;;;;;9.00;9.00;;;;;12.35;65.31;101393.69;5081274;27;45353;-67
2022/01/02 06:47:03;;;;;;;;;14.00;9.33;;;;;12.33;64.47;101396.31;5090279;27;45374;-67
2022/01/02 06:49:28;;;;;;;;;9.00;9.00;;;;;12.30;63.80;101388.28;5081812;27;45505;-68
2022/01/02 06:51:54;;;;;;;;;10.33;8.00;;;;;12.07;65.15;101353.19;5088115;27;45617;-68
2022/01/02 06:54:19;;;;;;;;;8.00;6.33;;;;;12.15;65.56;101378.13;5080850;27;46282;-67
2022/01/02 06:56:44;;;;;;;;;8.67;8.67;;;;;12.16;64.99;101394.97;5083899;27;45300;-67
2022/01/02 06:59:10;;;;;;;;;8.33;8.33;;;;;12.15;65.16;101399.34;5079432;27;45328;-68
2022/01/02 07:01:35;;;;;;;;;9.00;9.00;;;;;12.12;65.00;101401.03;5095335;27;46298;-68
2022/01/02 07:04:00;;;;;;;;;8.33;8.33;;;;;12.14;65.32;101417.88;5086573;27;46310;-68
2022/01/02 07:06:26;;;;;;;;;12.00;9.00;;;;;12.03;64.86;101410.50;5092337;27;45414;-68
2022/01/02 07:08:51;;;;;;;;;11.67;9.00;;;;;12.01;65.50;101412.19;5102000;27;45345;-68
2022/01/02 07:11:18;;;;;;;;;8.33;8.33;;;;;11.95;65.80;101400.56;5088831;27;47209;-67
2022/01/02 07:13:43;;;;;;;;;11.33;8.67;;;;;11.99;66.23;101395.41;5090233;27;45348;-68
2022/01/02 07:16:09;;;;;;;;;8.33;8.33;;;;;11.96;66.63;101389.09;5087775;27;45326;-67
2022/01/02 07:18:34;;;;;;;;;12.67;10.33;;;;;12.02;66.38;101395.47;5090426;27;45297;-67
2022/01/02 07:20:59;;;;;;;;;10.33;9.67;;;;;12.05;66.48;101399.97;5087758;27;45384;-68
2022/01/02 07:23:25;;;;;;;;;8.67;8.00;;;;;12.02;66.08;101392.81;5082211;27;45257;-66
2022/01/02 07:25:50;;;;;;;;;8.00;8.00;;;;;12.05;65.87;101402.63;5086527;27;45295;-65
2022/01/02 07:28:15;;;;;;;;;9.75;8.50;;;;;12.05;66.11;101400.84;5089061;27;45244;-66
2022/01/02 07:30:41;;;;;;;;;8.67;8.00;;;;;12.05;66.58;101392.91;5084263;27;45595;-66
2022/01/02 07:33:06;;;;;;;;;8.50;8.50;;;;;12.08;66.24;101400.94;5087858;27;45243;-66
2022/01/02 07:35:32;;;;;;;;;14.75;9.75;;;;;12.09;66.37;101402.72;5089368;27;45437;-66
2022/01/02 07:37:58;;;;;;;;;12.67;9.67;;;;;12.14;66.44;101405.50;5097970;27;45153;-67
2022/01/02 07:40:24;;;;;;;;;12.00;9.67;;;;;12.15;66.43;101401.09;5095703;27;45494;-66
2022/01/02 07:42:49;;;;;;;;;10.67;7.67;;;;;12.16;66.10;101400.25;5086897;27;45370;-66
2022/01/02 07:45:15;;;;;;;;;10.33;10.33;;;;;12.11;66.49;101384.22;5086371;27;45461;-66
2022/01/02 07:47:40;;;;;;;;;9.00;8.33;;;;;12.13;66.55;101387.81;5089644;27;45278;-66
2022/01/02 07:50:06;;;;;;;;;13.00;9.75;;;;;12.17;66.51;101416.19;5083822;27;45792;-66
2022/01/02 07:52:32;;;;;;;;;9.00;8.00;;;;;12.07;66.41;101415.06;5089364;27;45518;-66
2022/01/02 07:54:57;;;;;;;;;8.67;7.00;;;;;12.02;65.93;101419.31;5085630;27;45534;-66
2022/01/02 07:57:22;;;;;;;;;8.33;8.00;;;;;12.00;66.21;101421.03;5093062;27;45320;-66
2022/01/02 07:59:48;;;;;;;;;12.00;10.67;;;;;12.01;67.23;101437.81;5098504;27;45542;-66
2022/01/02 08:02:14;;;;;;;;;11.75;8.25;;;;;11.83;66.69;101416.97;5101069;27;45303;-66
2022/01/02 08:04:40;;;;;;;;;11.50;10.25;;;;;11.94;66.88;101443.81;5086636;27;45398;-66
2022/01/02 08:07:05;;;;;;;;;14.00;9.75;;;;;11.95;67.49;101457.06;5098628;27;45342;-66
2022/01/02 08:09:31;;;;;;;;;15.50;12.00;;;;;11.72;67.63;101435.19;5101004;27;45368;-66
2022/01/02 08:11:56;;;;;;;;;15.25;11.50;;;;;11.85;67.35;101465.59;5101595;27;45336;-66
2022/01/02 08:14:21;;;;;;;;;8.50;8.50;;;;;11.93;67.33;101487.94;5107494;27;45177;-66
2022/01/02 08:16:47;;;;;;;;;11.25;11.25;;;;;11.88;67.00;101475.41;5105399;27;45314;-67
2022/01/02 08:19:13;;;;;;;;;13.25;10.50;;;;;11.88;67.99;101476.31;5110306;27;45624;-67
2022/01/02 08:21:39;;;;;;;;;12.00;12.00;;;;;11.91;67.75;101492.28;5100975;27;45324;-67
2022/01/02 08:24:05;;;;;;;;;14.50;9.00;;;;;11.90;68.00;101494.88;5105897;27;45702;-67
2022/01/02 08:26:31;;;;;;;;;11.50;10.00;;;;;11.70;67.58;101451.88;5107964;27;45309;-67
2022/01/02 08:29:00;;;;;;;;;11.00;8.75;;;;;11.78;67.90;101463.59;5112533;27;46014;-66
2022/01/02 08:31:26;;;;;;;;;10.75;9.00;;;;;11.86;68.02;101481.56;5103288;27;45518;-66
2022/01/02 08:33:51;;;;;;;;;9.00;9.00;;;;;11.88;67.97;101481.63;5109156;27;45231;-66
2022/01/02 08:36:17;;;;;;;;;7.50;7.50;;;;;11.87;69.08;101485.09;5097656;27;45378;-67
2022/01/02 08:38:42;;;;;;;;;11.25;11.00;;;;;11.90;68.41;101485.19;5113990;27;45313;-67
2022/01/02 08:41:07;;;;;;;;;15.00;13.00;;;;;11.88;68.70;101471.00;5095822;27;46352;-67
2022/01/02 08:43:34;;;;;;;;;14.00;12.00;;;;;11.93;68.56;101485.31;5105962;27;45369;-66
2022/01/02 08:46:00;;;;;;;;;10.75;10.00;;;;;11.92;69.25;101503.78;5100916;27;45539;-67
2022/01/02 08:48:25;;;;;;;;;12.33;11.33;;;;;11.93;68.87;101494.97;5103702;27;45582;-67
2022/01/02 08:50:51;;;;;;;;;11.00;11.00;;;;;12.00;68.93;101496.97;5101335;27;46644;-66
2022/01/02 08:53:17;;;;;;;;;12.33;10.00;;;;;11.97;69.04;101492.47;5100469;27;45476;-67
2022/01/02 08:55:42;;;;;;;;;13.75;10.25;;;;;11.98;69.10;101498.66;5101636;27;45482;-67
2022/01/02 08:58:08;;;;;;;;;13.33;13.00;;;;;11.95;69.08;101488.88;5102822;27;45595;-66
2022/01/02 09:00:35;;;;;;;;;11.50;10.75;;;;;12.02;69.09;101506.75;5103093;27;46363;-67
2022/01/02 09:03:00;;;;;;;;;8.00;7.00;;;;;12.01;69.17;101510.25;5099654;27;45246;-67
2022/01/02 09:05:27;;;;;;;;;10.67;8.67;;;;;12.07;69.32;101517.47;5105497;27;45288;-67
2022/01/02 09:07:53;;;;;;;;;15.00;12.00;;;;;12.01;69.61;101509.34;5096678;27;45948;-67
2022/01/02 09:10:18;;;;;;;;;15.75;13.75;;;;;12.04;69.50;101515.66;5099096;27;47124;-67
2022/01/02 09:12:44;;;;;;;;;8.67;8.67;;;;;12.09;69.29;101524.63;5113187;27;45360;-67
2022/01/02 09:15:11;;;;;;;;;9.33;8.33;;;;;11.86;69.20;101483.31;5095290;27;45385;-67
2022/01/02 09:17:36;;;;;;;;;9.50;7.75;;;;;12.09;69.31;101527.28;5088269;27;44818;-67
2022/01/02 09:20:04;;;;;;;;;11.33;10.33;;;;;12.10;69.81;101541.44;5082772;27;45584;-68
2022/01/02 09:22:30;;;;;;;;;11.00;11.00;;;;;12.02;69.76;101520.00;5089573;27;45272;-68
2022/01/02 09:24:55;;;;;;;;;8.00;8.00;;;;;12.15;70.30;101534.50;5082776;27;45442;-68
2022/01/02 09:27:20;;;;;;;;;8.67;7.00;;;;;12.15;69.81;101541.56;5085648;27;46079;-68
2022/01/02 09:29:46;;;;;;;;;8.33;8.33;;;;;12.14;70.39;101542.44;5081095;27;45423;-68
2022/01/02 09:32:11;;;;;;;;;8.00;7.00;;;;;12.14;69.74;101534.47;5087114;27;45397;-68
2022/01/02 09:34:36;;;;;;;;;9.67;8.00;;;;;12.19;69.65;101538.16;5082608;27;45303;-68
2022/01/02 09:37:04;;;;;;;;;13.67;9.67;;;;;12.18;70.61;101534.59;5085374;27;45556;-68
2022/01/02 09:39:29;;;;;;;;;11.67;8.33;;;;;12.22;69.94;101527.66;5097531;27;46328;-67
2022/01/02 09:41:55;;;;;;;;;10.00;9.33;;;;;12.26;70.26;101529.53;5088521;27;45453;-68
2022/01/02 09:44:21;;;;;;;;;6.67;5.00;;;;;12.22;70.76;101519.69;5081550;27;44920;-68
2022/01/02 09:46:51;;;;;;;;;14.67;9.00;;;;;12.23;70.46;101516.19;5091864;27;45475;-68
2022/01/02 09:49:17;;;;;;;;;17.00;13.25;;;;;12.37;69.97;101524.53;5080943;27;45265;-68
2022/01/02 09:51:42;;;;;;;;;9.67;9.67;;;;;12.45;69.31;101529.19;5089879;27;46258;-68
2022/01/02 09:54:09;;;;;;;;;13.00;11.33;;;;;12.54;69.44;101536.50;5080247;27;45287;-67
2022/01/02 09:56:34;;;;;;;;;12.67;8.33;;;;;12.51;69.60;101532.03;5087190;27;47126;-68
2022/01/02 09:59:02;;;;;;;;;9.67;9.00;;;;;12.50;69.45;101511.66;5079437;27;46092;-68
2022/01/02 10:01:29;;;;;;;;;12.00;9.67;;;;;12.60;69.53;101533.13;5096429;27;45375;-68
2022/01/02 10:03:57;;;;;;;;;9.67;7.33;;;;;12.59;69.86;101532.25;5088855;27;45371;-68
2022/01/02 10:06:40;;;;;;;;;7.00;7.00;;;;;12.63;69.67;101531.50;5087084;27;45488;-68
2022/01/02 10:09:10;;;;;;;;;7.00;7.00;;;;;12.76;69.27;101546.84;5098372;27;45303;-68
2022/01/02 10:11:40;;;;;;;;;13.00;9.00;;;;;12.72;69.09;101531.72;5092270;27;45404;-68
2022/01/02 10:14:06;;;;;;;;;7.00;7.00;;;;;12.83;69.22;101532.03;5085064;27;45434;-68
2022/01/02 10:16:40;;;;;;;;;8.00;6.67;;;;;12.91;69.08;101525.16;5082917;27;46527;-68
2022/01/02 10:19:26;;;;;;;;;7.67;6.00;;;;;13.11;68.72;101536.31;5078972;27;47043;-68
2022/01/02 10:21:58;;;;;;;;;9.33;7.00;;;;;13.15;68.76;101529.31;5090168;27;45223;-68
2022/01/02 10:24:27;;;;;;;;;7.67;7.67;;;;;13.25;68.51;101534.00;5081550;27;45556;-68
2022/01/02 10:27:08;;;;;;;;;6.67;5.33;;;;;13.35;68.24;101532.50;5088368;27;45227;-68
2022/01/02 10:29:40;;;;;;;;;7.00;4.00;;;;;13.51;67.94;101539.97;5093307;27;45372;-68
2022/01/02 10:32:34;;;;;;;;;9.00;5.00;;;;;13.62;67.83;101537.59;5085323;27;45260;-68
2022/01/02 10:35:09;;;;;;;;;6.00;6.00;;;;;13.72;67.63;101546.66;5097063;27;44867;-68
2022/01/02 10:37:35;;;;;;;;;9.00;9.00;;;;;13.78;66.73;101545.06;5097961;27;45409;-68
2022/01/02 10:40:00;;;;;;;;;4.00;3.00;;;;;13.86;66.66;101539.91;5092867;27;45466;-68
2022/01/02 10:42:27;;;;;;;;;6.00;4.67;;;;;13.91;67.66;101546.22;5091476;27;45386;-68
2022/01/02 10:44:53;;;;;;;;;5.33;4.00;;;;;13.94;67.08;101518.81;5084683;27;45340;-68
2022/01/02 10:47:25;;;;;;;;;3.67;2.67;;;;;14.09;66.91;101541.31;5093409;27;45349;-68
2022/01/02 10:50:01;;;;;;;;;4.00;3.00;;;;;14.13;66.52;101523.66;5099979;27;48187;-68
2022/01/02 10:52:31;;;;;;;;;5.00;4.00;;;;;14.15;66.17;101527.25;5084481;27;45342;-68
2022/01/02 10:55:00;;;;;;;;;3.00;3.00;;;;;14.18;65.80;101519.34;5106221;27;45446;-68
2022/01/02 10:57:26;;;;;;;;;4.00;4.00;;;;;14.22;65.84;101520.31;5099527;27;45331;-68
2022/01/02 10:59:56;;;;;;;;;5.00;4.33;;;;;14.12;66.27;101497.97;5104358;27;46179;-67
2022/01/02 11:02:23;;;;;;;;;5.00;3.00;;;;;14.39;66.05;101536.59;5093708;27;45236;-67
2022/01/02 11:04:53;;;;;;;;;6.00;4.00;;;;;14.35;65.83;101522.34;5086230;27;44811;-68
2022/01/02 11:07:24;;;;;;;;;2.00;1.00;;;;;14.43;65.16;101530.50;5092680;27;45277;-67
2022/01/02 11:09:55;;;;;;;;;4.00;2.33;;;;;14.38;64.82;101519.75;5098726;27;45460;-67
2022/01/02 11:12:21;;;;;;;;;2.33;2.00;;;;;14.42;65.15;101526.91;5093353;27;45239;-68
2022/01/02 11:14:48;;;;;;;;;4.00;3.00;;;;;14.44;65.88;101525.19;5096903;27;45301;-67
2022/01/02 11:17:14;;;;;;;;;3.00;2.00;;;;;14.45;64.75;101523.44;5095631;27;45393;-67
2022/01/02 11:19:40;;;;;;;;;3.67;3.00;;;;;14.46;65.29;101515.50;5092948;27;45474;-68
2022/01/02 11:22:11;;;;;;;;;3.00;2.00;;;;;14.55;65.17;101521.00;5092280;27;45277;-68